Time;durP1;ratioP1;P1;durP2;ratioP2;P2;SDS_P1;SDS_P2;PMS_P1;PMS_P2;Temp;Humidity;BMP_temperature;BMP_pressure;BME280_temperature;BME280_humidity;BME280_pressure;Samples;Min_cycle;Max_cycle;Signal;HPM_P1;HPM_P2
2022/09/16 00:00:23;;;;;;;7.20;5.97;;;13.50;99.90;;;;;;5006251;28;20205;-87
2022/09/16 00:02:53;;;;;;;6.90;4.97;;;13.60;99.90;;;;;;4996313;28;20291;-87
2022/09/16 00:05:20;;;;;;;5.43;4.67;;;13.60;99.90;;;;;;5005288;28;20233;-86
2022/09/16 00:07:46;;;;;;;5.77;4.27;;;13.60;99.90;;;;;;5013626;28;20191;-87
2022/09/16 00:10:12;;;;;;;5.17;4.67;;;13.60;99.90;;;;;;4991919;28;20210;-87
2022/09/16 00:12:39;;;;;;;4.33;3.93;;;13.50;99.90;;;;;;5011183;28;20189;-87
2022/09/16 00:15:05;;;;;;;5.47;3.97;;;13.50;99.90;;;;;;5013832;28;20282;-86
2022/09/16 00:17:31;;;;;;;4.43;4.03;;;13.50;99.90;;;;;;5013518;28;20187;-87
2022/09/16 00:19:57;;;;;;;4.87;4.13;;;13.60;99.90;;;;;;5015285;28;20194;-86
2022/09/16 00:22:23;;;;;;;6.23;4.10;;;13.60;99.90;;;;;;4999691;28;20186;-87
2022/09/16 00:24:49;;;;;;;7.87;4.53;;;13.60;99.90;;;;;;4995718;28;20198;-87
2022/09/16 00:27:15;;;;;;;5.10;4.33;;;13.50;99.90;;;;;;5014621;28;20270;-86
2022/09/16 00:29:41;;;;;;;5.27;4.17;;;13.50;99.90;;;;;;4998073;28;20202;-87
2022/09/16 00:32:07;;;;;;;5.57;4.20;;;13.50;99.90;;;;;;5015092;28;20267;-87
2022/09/16 00:34:33;;;;;;;5.07;4.47;;;13.50;99.90;;;;;;4999185;28;20199;-86
2022/09/16 00:37:02;;;;;;;6.93;4.77;;;13.50;99.90;;;;;;4984873;28;20175;-87
2022/09/16 00:39:28;;;;;;;4.90;4.40;;;13.50;99.90;;;;;;4995030;28;20189;-87
2022/09/16 00:41:54;;;;;;;5.23;4.63;;;13.50;99.90;;;;;;5000981;28;20179;-86
2022/09/16 00:45:01;;;;;;;4.67;3.90;;;13.50;99.90;;;;;;4994766;28;20225;-86
2022/09/16 00:47:37;;;;;;;6.30;4.40;;;13.40;99.90;;;;;;5003132;28;20186;-86
2022/09/16 00:50:07;;;;;;;5.77;3.90;;;13.40;99.90;;;;;;5029500;28;20201;-86
2022/09/16 00:52:39;;;;;;;4.50;3.83;;;13.40;99.90;;;;;;5021875;28;20178;-87
2022/09/16 00:55:08;;;;;;;8.23;5.00;;;13.30;99.90;;;;;;4979858;28;20241;-87
2022/09/16 00:57:35;;;;;;;5.03;4.50;;;13.30;99.90;;;;;;4979048;28;20175;-86
2022/09/16 01:00:02;;;;;;;5.67;4.60;;;13.30;99.90;;;;;;4980819;28;20183;-86
2022/09/16 01:02:28;;;;;;;5.77;4.87;;;13.30;99.90;;;;;;4986142;28;20294;-87
2022/09/16 01:05:08;;;;;;;6.67;4.90;;;13.30;99.90;;;;;;4980311;28;20218;-87
2022/09/16 01:07:40;;;;;;;5.10;4.60;;;13.20;99.90;;;;;;5025357;28;20254;-87
2022/09/16 01:10:07;;;;;;;6.73;4.60;;;13.20;99.90;;;;;;5008806;28;20230;-87
2022/09/16 01:12:35;;;;;;;8.97;5.13;;;13.20;99.90;;;;;;4997129;28;20186;-87
2022/09/16 01:15:02;;;;;;;6.30;5.03;;;13.20;99.90;;;;;;4998736;28;20196;-86
2022/09/16 01:17:45;;;;;;;6.23;4.90;;;13.20;99.90;;;;;;5004209;28;20209;-86
2022/09/16 01:20:30;;;;;;;5.70;5.20;;;13.20;99.90;;;;;;4996759;28;20179;-86
2022/09/16 01:23:15;;;;;;;9.17;5.87;;;13.20;99.90;;;;;;4996709;28;20207;-87
2022/09/16 01:25:49;;;;;;;5.93;5.40;;;13.20;99.90;;;;;;4988487;28;20194;-86
2022/09/16 01:28:31;;;;;;;7.40;5.00;;;13.20;99.90;;;;;;5012196;28;20188;-87
2022/09/16 01:31:35;;;;;;;5.03;4.53;;;13.20;99.90;;;;;;5000392;28;20345;-86
2022/09/16 01:34:21;;;;;;;5.83;5.23;;;13.20;99.90;;;;;;4993934;28;20174;-87
2022/09/16 01:37:06;;;;;;;8.33;5.50;;;13.20;99.90;;;;;;4993329;28;20269;-86
2022/09/16 01:39:48;;;;;;;7.57;5.23;;;13.20;99.90;;;;;;4979538;28;20179;-87
2022/09/16 01:42:27;;;;;;;7.80;5.30;;;13.30;99.90;;;;;;4996039;28;20174;-87
2022/09/16 01:44:58;;;;;;;7.23;5.37;;;13.40;99.90;;;;;;4980161;28;20211;-86
2022/09/16 01:47:27;;;;;;;6.13;5.53;;;13.40;99.90;;;;;;4998295;28;20167;-86
2022/09/16 01:50:09;;;;;;;6.23;5.47;;;13.40;99.90;;;;;;5015450;28;20223;-86
2022/09/16 01:52:42;;;;;;;5.93;5.33;;;13.40;99.90;;;;;;5011671;28;20233;-87
2022/09/16 01:55:17;;;;;;;5.63;5.10;;;13.40;99.90;;;;;;5022757;28;20210;-87
2022/09/16 01:57:52;;;;;;;7.33;5.67;;;13.40;99.90;;;;;;4995322;28;20175;-87
2022/09/16 02:00:18;;;;;;;5.73;5.03;;;13.40;99.90;;;;;;5015301;28;20220;-87
2022/09/16 02:03:02;;;;;;;5.87;5.33;;;13.30;99.90;;;;;;5015106;28;20181;-87
2022/09/16 02:05:54;;;;;;;6.73;5.23;;;13.30;99.90;;;;;;4999075;28;20205;-86
2022/09/16 02:08:41;;;;;;;6.30;5.70;;;13.30;99.90;;;;;;4998028;28;20182;-86
2022/09/16 02:11:16;;;;;;;5.50;5.00;;;13.30;99.90;;;;;;4986493;28;20289;-87
2022/09/16 02:14:04;;;;;;;5.43;4.60;;;13.20;99.90;;;;;;4990674;28;20262;-87
2022/09/16 02:16:45;;;;;;;5.73;5.13;;;13.10;99.90;;;;;;4983404;28;20189;-86
2022/09/16 02:19:18;;;;;;;6.40;5.13;;;13.10;99.90;;;;;;5015527;28;20220;-86
2022/09/16 02:21:53;;;;;;;5.43;4.90;;;13.00;99.90;;;;;;4995644;28;20210;-87
2022/09/16 02:24:21;;;;;;;5.73;4.80;;;13.00;99.90;;;;;;5015089;28;20198;-86
2022/09/16 02:26:53;;;;;;;7.37;6.30;;;13.00;99.90;;;;;;5014741;28;20182;-86
2022/09/16 02:29:24;;;;;;;6.03;5.37;;;12.80;99.90;;;;;;4996352;28;20209;-86
2022/09/16 02:31:54;;;;;;;9.67;5.67;;;12.70;99.90;;;;;;4995147;28;20184;-87
2022/09/16 02:34:34;;;;;;;7.00;5.57;;;12.70;99.90;;;;;;4998301;28;20229;-86
2022/09/16 02:37:08;;;;;;;6.77;6.07;;;12.70;99.90;;;;;;5015589;28;20559;-87
2022/09/16 02:39:38;;;;;;;6.60;5.40;;;12.70;99.90;;;;;;5004812;28;20178;-86
2022/09/16 02:42:05;;;;;;;7.23;5.90;;;12.70;99.90;;;;;;4996927;28;20185;-86
2022/09/16 02:44:31;;;;;;;6.50;5.90;;;12.70;99.90;;;;;;5022082;28;20222;-87
2022/09/16 02:47:15;;;;;;;8.77;5.53;;;12.70;99.90;;;;;;5004546;28;20179;-86
2022/09/16 02:49:57;;;;;;;5.47;4.87;;;12.80;99.90;;;;;;5002994;28;20213;-86
2022/09/16 02:53:00;;;;;;;6.80;6.07;;;12.80;99.90;;;;;;5008346;28;20261;-87
2022/09/16 02:55:53;;;;;;;7.33;5.07;;;12.80;99.90;;;;;;5004462;28;20198;-87
2022/09/16 02:58:20;;;;;;;6.20;5.23;;;12.70;99.90;;;;;;5018284;28;20185;-86
2022/09/16 03:00:48;;;;;;;5.90;5.30;;;12.70;99.90;;;;;;5003175;28;20185;-86
2022/09/16 03:03:15;;;;;;;6.43;5.23;;;12.60;99.90;;;;;;5012075;28;20239;-86
2022/09/16 03:06:09;;;;;;;6.07;5.47;;;12.60;99.90;;;;;;5010571;28;20206;-86
2022/09/16 03:08:37;;;;;;;6.97;5.33;;;12.50;99.90;;;;;;4998771;28;20179;-87
2022/09/16 03:11:34;;;;;;;6.80;5.03;;;12.60;99.90;;;;;;5010226;28;20206;-86
2022/09/16 03:14:09;;;;;;;5.10;4.63;;;12.60;99.90;;;;;;5010730;28;20210;-87
2022/09/16 03:16:55;;;;;;;5.90;5.40;;;12.60;99.90;;;;;;4999918;28;20181;-86
2022/09/16 03:19:42;;;;;;;7.57;5.70;;;12.70;99.90;;;;;;5007093;28;20181;-87
2022/09/16 03:22:20;;;;;;;5.17;4.67;;;12.70;99.90;;;;;;5002756;28;20186;-87
2022/09/16 03:24:56;;;;;;;7.27;5.40;;;12.70;99.90;;;;;;5006745;28;20203;-86
2022/09/16 03:27:33;;;;;;;5.70;5.20;;;12.70;99.90;;;;;;5014339;28;20214;-87
2022/09/16 03:30:07;;;;;;;6.43;5.23;;;12.70;99.90;;;;;;5012508;28;20230;-86
2022/09/16 03:32:42;;;;;;;6.40;5.10;;;12.70;99.90;;;;;;5008920;28;20201;-87
2022/09/16 03:35:13;;;;;;;5.40;4.73;;;12.80;99.90;;;;;;5006050;28;20202;-86
2022/09/16 03:37:41;;;;;;;5.07;4.67;;;12.80;99.90;;;;;;5008946;28;20227;-86
2022/09/16 03:40:10;;;;;;;7.67;5.40;;;12.70;99.90;;;;;;5011239;28;20193;-86
2022/09/16 03:42:45;;;;;;;6.03;5.43;;;12.80;99.90;;;;;;5004148;28;20276;-86
2022/09/16 03:45:20;;;;;;;5.83;5.20;;;12.80;99.90;;;;;;4997351;28;20219;-86
2022/09/16 03:47:48;;;;;;;6.17;5.57;;;12.80;99.90;;;;;;4981977;28;20170;-86
2022/09/16 03:50:16;;;;;;;6.93;5.87;;;12.80;99.90;;;;;;4996735;28;20202;-86
2022/09/16 03:52:42;;;;;;;7.00;5.90;;;12.80;99.90;;;;;;4981923;28;20233;-87
2022/09/16 03:55:09;;;;;;;6.97;5.50;;;12.80;99.90;;;;;;4989603;28;20193;-86
2022/09/16 03:57:36;;;;;;;6.80;6.10;;;12.80;99.90;;;;;;5001024;28;20173;-86
2022/09/16 04:00:04;;;;;;;6.00;5.37;;;12.80;99.90;;;;;;5007643;28;20209;-86
2022/09/16 04:02:41;;;;;;;7.53;5.60;;;12.80;99.90;;;;;;5017869;28;20192;-86
2022/09/16 04:05:07;;;;;;;6.43;5.00;;;12.80;99.90;;;;;;5017827;28;20602;-86
2022/09/16 04:07:34;;;;;;;6.60;5.83;;;12.80;99.90;;;;;;5001023;28;20668;-86
2022/09/16 04:10:00;;;;;;;6.67;5.60;;;12.80;99.90;;;;;;5001005;28;20248;-87
2022/09/16 04:12:27;;;;;;;8.63;5.83;;;12.80;99.90;;;;;;5001140;28;20185;-86
2022/09/16 04:14:53;;;;;;;6.53;5.90;;;12.80;99.90;;;;;;4988705;28;20257;-86
2022/09/16 04:17:23;;;;;;;6.23;5.60;;;12.80;99.90;;;;;;4987661;28;20192;-86
2022/09/16 04:19:50;;;;;;;7.67;4.73;;;12.90;99.90;;;;;;5017346;28;20197;-87
2022/09/16 04:22:15;;;;;;;11.50;6.13;;;12.90;99.90;;;;;;5003351;28;20242;-87
2022/09/16 04:24:41;;;;;;;6.63;5.37;;;12.90;99.90;;;;;;4981509;28;20210;-86
2022/09/16 04:27:07;;;;;;;9.90;5.67;;;13.00;99.90;;;;;;4997997;28;20209;-86
2022/09/16 04:29:33;;;;;;;6.17;5.57;;;13.00;99.90;;;;;;5014226;28;20227;-87
2022/09/16 04:31:59;;;;;;;6.10;5.50;;;13.00;99.90;;;;;;5010224;28;20194;-86
2022/09/16 04:34:25;;;;;;;6.40;5.03;;;13.00;99.90;;;;;;4997635;28;20199;-87
2022/09/16 04:36:51;;;;;;;5.83;5.23;;;13.00;99.90;;;;;;5007329;28;20209;-86
2022/09/16 04:39:17;;;;;;;8.33;5.50;;;13.00;99.90;;;;;;5016714;28;20185;-86
2022/09/16 04:41:43;;;;;;;7.40;5.10;;;13.00;99.90;;;;;;5016666;28;20190;-86
2022/09/16 04:44:09;;;;;;;5.53;5.03;;;13.00;99.90;;;;;;4996843;28;20215;-86
2022/09/16 04:46:37;;;;;;;5.43;4.93;;;13.00;99.90;;;;;;5013050;28;20179;-87
2022/09/16 04:49:04;;;;;;;5.90;4.80;;;13.00;99.90;;;;;;5015877;28;20175;-87
2022/09/16 04:51:40;;;;;;;7.00;5.20;;;13.00;99.90;;;;;;5000227;28;20238;-87
2022/09/16 04:54:06;;;;;;;6.63;5.30;;;13.00;99.90;;;;;;4979799;28;20209;-86
2022/09/16 04:56:32;;;;;;;6.40;5.80;;;13.00;99.90;;;;;;4978811;28;20190;-86
2022/09/16 04:59:01;;;;;;;7.33;5.73;;;13.00;99.90;;;;;;5012331;28;20186;-87
2022/09/16 05:01:35;;;;;;;5.97;5.47;;;13.00;99.90;;;;;;4997761;28;20193;-87
2022/09/16 05:04:03;;;;;;;6.13;5.07;;;13.00;99.90;;;;;;4995465;28;20187;-86
2022/09/16 05:06:32;;;;;;;5.70;5.20;;;13.00;99.90;;;;;;4995496;28;20219;-86
2022/09/16 05:09:01;;;;;;;5.60;4.93;;;13.00;99.90;;;;;;4994816;28;20190;-86
2022/09/16 05:11:33;;;;;;;6.37;5.77;;;12.90;99.90;;;;;;5002509;28;20206;-87
2022/09/16 05:14:01;;;;;;;6.07;5.50;;;13.00;99.90;;;;;;5013642;28;20197;-86
2022/09/16 05:16:27;;;;;;;6.33;5.73;;;12.90;99.90;;;;;;5012838;28;20191;-86
2022/09/16 05:18:55;;;;;;;8.10;6.20;;;12.80;99.90;;;;;;5014160;28;20178;-87
2022/09/16 05:21:23;;;;;;;7.27;6.07;;;12.70;99.90;;;;;;5030105;28;20212;-86
2022/09/16 05:23:49;;;;;;;7.00;6.27;;;12.70;99.90;;;;;;4994677;28;20284;-87
2022/09/16 05:26:17;;;;;;;7.80;6.47;;;12.70;99.90;;;;;;4995234;28;20197;-86
2022/09/16 05:28:43;;;;;;;6.73;6.13;;;12.70;99.90;;;;;;4994283;28;20182;-87
2022/09/16 05:31:21;;;;;;;8.40;6.03;;;12.80;99.90;;;;;;5010672;28;20211;-88
2022/09/16 05:33:56;;;;;;;7.77;6.43;;;12.80;99.90;;;;;;4994420;28;20188;-86
2022/09/16 05:36:24;;;;;;;7.60;6.33;;;12.80;99.90;;;;;;4986493;28;20189;-93
2022/09/16 05:38:50;;;;;;;9.20;6.27;;;12.80;99.90;;;;;;4985641;28;20206;-86
2022/09/16 05:41:16;;;;;;;9.23;6.60;;;12.90;99.90;;;;;;4995754;28;20190;-87
2022/09/16 05:43:42;;;;;;;6.57;5.90;;;12.80;99.90;;;;;;4996683;28;20185;-88
2022/09/16 05:46:24;;;;;;;7.00;6.27;;;12.90;99.90;;;;;;4998919;28;20294;-87
2022/09/16 05:48:50;;;;;;;8.20;5.30;;;12.90;99.90;;;;;;4999668;28;20193;-86
2022/09/16 05:51:18;;;;;;;8.90;6.37;;;12.90;99.90;;;;;;4996712;28;20206;-87
2022/09/16 05:53:45;;;;;;;7.43;5.93;;;13.00;99.90;;;;;;4998163;28;20622;-87
2022/09/16 05:56:15;;;;;;;7.23;5.97;;;13.00;99.90;;;;;;5014220;28;20202;-87
2022/09/16 05:58:43;;;;;;;6.67;5.97;;;13.10;99.90;;;;;;4991402;28;20167;-86
2022/09/16 06:01:19;;;;;;;7.80;6.03;;;13.10;99.90;;;;;;4999050;28;20256;-87
2022/09/16 06:03:47;;;;;;;7.63;6.83;;;13.10;99.90;;;;;;4984170;28;20186;-84
2022/09/16 06:06:48;;;;;;;9.10;7.30;;;13.20;99.90;;;;;;5004009;28;20187;-88
2022/09/16 06:09:21;;;;;;;7.97;6.10;;;13.20;99.90;;;;;;4995961;28;20248;-88
2022/09/16 06:11:50;;;;;;;6.87;6.17;;;13.30;99.90;;;;;;5022899;28;20202;-88
2022/09/16 06:14:21;;;;;;;7.00;6.20;;;13.30;99.90;;;;;;5010223;28;20203;-88
2022/09/16 06:16:49;;;;;;;6.83;6.07;;;13.20;99.90;;;;;;4991806;28;20643;-88
2022/09/16 06:19:17;;;;;;;9.63;7.77;;;13.20;99.90;;;;;;5019783;28;20182;-88
2022/09/16 06:21:44;;;;;;;8.23;7.43;;;13.20;99.90;;;;;;5002680;28;20194;-88
2022/09/16 06:24:11;;;;;;;10.30;7.80;;;13.30;99.90;;;;;;5003012;28;20197;-89
2022/09/16 06:26:40;;;;;;;7.83;7.07;;;13.30;99.90;;;;;;5008269;28;20194;-88
2022/09/16 06:29:07;;;;;;;8.60;7.37;;;13.30;99.90;;;;;;5003067;28;20179;-88
2022/09/16 06:31:34;;;;;;;9.40;7.40;;;13.30;99.90;;;;;;5020237;28;20256;-88
2022/09/16 06:34:00;;;;;;;10.10;7.83;;;13.30;99.90;;;;;;5008770;28;20175;-88
2022/09/16 06:36:41;;;;;;;9.07;7.50;;;13.30;99.90;;;;;;5010716;28;20171;-88
2022/09/16 06:39:10;;;;;;;9.43;7.07;;;13.30;99.90;;;;;;4997647;28;20182;-87
2022/09/16 06:41:36;;;;;;;11.03;7.80;;;13.30;99.90;;;;;;4996778;28;20182;-87
2022/09/16 06:44:01;;;;;;;7.70;6.90;;;13.30;99.90;;;;;;4999960;28;20191;-88
2022/09/16 06:46:28;;;;;;;7.30;6.40;;;13.40;99.90;;;;;;4999631;28;20187;-83
2022/09/16 06:48:56;;;;;;;9.30;7.50;;;13.40;99.90;;;;;;5011859;28;20217;-87
2022/09/16 06:51:27;;;;;;;7.53;6.27;;;13.40;99.90;;;;;;5006491;28;20304;-88
2022/09/16 06:53:58;;;;;;;6.33;5.57;;;13.40;99.90;;;;;;4994696;28;20234;-88
2022/09/16 06:56:24;;;;;;;5.80;4.60;;;13.40;99.90;;;;;;5011353;28;20174;-87
2022/09/16 06:58:54;;;;;;;6.67;4.07;;;13.30;99.90;;;;;;4995160;28;20194;-88
2022/09/16 07:01:25;;;;;;;6.57;3.93;;;13.30;99.90;;;;;;4996610;28;20245;-87
2022/09/16 07:03:53;;;;;;;5.60;4.10;;;13.20;99.90;;;;;;5000151;28;20194;-87
2022/09/16 07:06:20;;;;;;;5.27;3.80;;;13.10;99.90;;;;;;5021026;28;20209;-87
2022/09/16 07:08:47;;;;;;;5.63;3.60;;;13.00;99.90;;;;;;5011448;28;20190;-87
2022/09/16 07:11:14;;;;;;;6.83;3.73;;;13.00;99.90;;;;;;5012597;28;20228;-88
2022/09/16 07:13:41;;;;;;;5.33;3.17;;;13.00;99.90;;;;;;5004828;28;20186;-87
2022/09/16 07:16:13;;;;;;;7.47;3.10;;;13.00;99.90;;;;;;5004359;28;20205;-87
2022/09/16 07:18:40;;;;;;;6.73;3.30;;;12.90;99.90;;;;;;5005069;28;20230;-87
2022/09/16 07:21:06;;;;;;;8.00;3.80;;;12.90;99.90;;;;;;4999043;28;20218;-88
2022/09/16 07:23:34;;;;;;;5.97;3.87;;;12.90;99.90;;;;;;4983147;28;20202;-88
2022/09/16 07:26:06;;;;;;;5.87;4.30;;;13.00;99.90;;;;;;4983767;28;20261;-87
2022/09/16 07:28:33;;;;;;;4.07;3.30;;;13.00;99.90;;;;;;4999914;28;20234;-88
2022/09/16 07:31:09;;;;;;;5.27;3.17;;;13.10;99.90;;;;;;4999994;28;20218;-87
2022/09/16 07:33:37;;;;;;;6.27;3.60;;;13.00;99.90;;;;;;4999413;28;20179;-87
2022/09/16 07:36:04;;;;;;;5.17;3.50;;;13.10;99.90;;;;;;5000210;28;20294;-88
2022/09/16 07:38:31;;;;;;;5.73;3.57;;;13.10;99.90;;;;;;5001677;28;20212;-87
2022/09/16 07:41:07;;;;;;;4.07;3.23;;;13.10;99.90;;;;;;5000614;28;20220;-86
2022/09/16 07:43:34;;;;;;;5.50;3.40;;;13.10;99.90;;;;;;5001610;28;20181;-87
2022/09/16 07:46:00;;;;;;;5.33;3.30;;;13.10;99.90;;;;;;5001009;28;20218;-87
2022/09/16 07:48:29;;;;;;;3.93;3.00;;;13.20;99.90;;;;;;5008893;28;20185;-87
2022/09/16 07:51:00;;;;;;;5.37;3.73;;;13.20;99.90;;;;;;5037585;28;20220;-87
2022/09/16 07:53:28;;;;;;;3.90;3.20;;;13.20;99.90;;;;;;4992298;28;20163;-86
2022/09/16 07:55:55;;;;;;;6.93;3.30;;;13.20;99.90;;;;;;4999210;28;20187;-87
2022/09/16 07:58:21;;;;;;;3.20;2.90;;;13.20;99.90;;;;;;5007564;28;20258;-87
2022/09/16 08:00:48;;;;;;;3.37;2.90;;;13.20;99.90;;;;;;4997926;28;20214;-86
2022/09/16 08:03:15;;;;;;;4.67;2.63;;;13.20;99.90;;;;;;4992658;28;20179;-87
2022/09/16 08:05:41;;;;;;;5.07;2.70;;;13.20;99.90;;;;;;4995554;28;20207;-87
2022/09/16 08:08:07;;;;;;;4.73;2.90;;;13.10;99.90;;;;;;5000621;28;20315;-87
2022/09/16 08:10:36;;;;;;;4.40;3.10;;;13.20;99.90;;;;;;4998723;28;20296;-86
2022/09/16 08:13:06;;;;;;;6.80;3.10;;;13.20;99.90;;;;;;5009525;28;20182;-86
2022/09/16 08:15:32;;;;;;;4.97;3.17;;;13.20;99.90;;;;;;5032927;28;20206;-87
2022/09/16 08:17:58;;;;;;;4.63;3.10;;;13.20;99.90;;;;;;5018012;28;20179;-86
2022/09/16 08:20:25;;;;;;;3.27;2.87;;;13.10;99.90;;;;;;5001700;28;20189;-87
2022/09/16 08:22:51;;;;;;;5.10;3.30;;;13.10;99.90;;;;;;5001503;28;20194;-87
2022/09/16 08:25:17;;;;;;;5.87;3.40;;;13.20;99.90;;;;;;5000340;28;20245;-87
2022/09/16 08:27:43;;;;;;;4.27;3.43;;;13.20;99.90;;;;;;4996201;28;20210;-87
2022/09/16 08:30:10;;;;;;;4.83;3.47;;;13.20;99.90;;;;;;4996823;28;20213;-87
2022/09/16 08:32:36;;;;;;;5.13;3.27;;;13.30;99.90;;;;;;4981456;28;20178;-86
2022/09/16 08:35:02;;;;;;;6.40;3.40;;;13.30;99.90;;;;;;4995997;28;20257;-86
2022/09/16 08:37:28;;;;;;;4.17;3.13;;;13.30;99.90;;;;;;4982076;28;20183;-86
2022/09/16 08:39:54;;;;;;;4.80;3.20;;;13.30;99.90;;;;;;4981936;28;20184;-86
2022/09/16 08:42:38;;;;;;;4.83;3.27;;;13.20;99.90;;;;;;4979660;28;20226;-87
2022/09/16 08:45:29;;;;;;;3.57;3.10;;;13.20;99.90;;;;;;4983068;28;20218;-87
2022/09/16 08:48:19;;;;;;;5.50;3.70;;;13.20;99.90;;;;;;4997477;28;20182;-87
2022/09/16 08:50:47;;;;;;;3.83;3.10;;;13.20;99.90;;;;;;5022397;28;20203;-87
2022/09/16 08:53:24;;;;;;;4.60;3.27;;;13.30;99.90;;;;;;5006800;28;20189;-87
2022/09/16 08:55:52;;;;;;;4.27;3.37;;;13.30;99.90;;;;;;4990165;28;20224;-87
2022/09/16 08:58:23;;;;;;;5.23;3.70;;;13.30;99.90;;;;;;4988932;28;20237;-87
2022/09/16 09:01:29;;;;;;;6.97;3.37;;;13.20;99.90;;;;;;4988633;28;20217;-87
2022/09/16 09:03:56;;;;;;;5.07;3.70;;;13.30;99.90;;;;;;4994632;28;20194;-87
2022/09/16 09:06:57;;;;;;;3.80;3.40;;;13.20;99.90;;;;;;4988426;28;20234;-88
2022/09/16 09:09:29;;;;;;;4.23;3.57;;;13.20;99.90;;;;;;4989772;28;20186;-87
2022/09/16 09:12:26;;;;;;;6.07;3.73;;;13.30;99.90;;;;;;5007772;28;20290;-87
2022/09/16 09:15:04;;;;;;;3.30;3.00;;;13.30;99.90;;;;;;4981179;28;20215;-87
2022/09/16 09:17:59;;;;;;;4.87;3.37;;;13.30;99.90;;;;;;5004860;28;20518;-87
2022/09/16 09:20:50;;;;;;;5.37;2.97;;;13.20;99.90;;;;;;4964587;28;20281;-87
2022/09/16 09:23:31;;;;;;;4.13;2.63;;;13.20;99.90;;;;;;4997948;28;20197;-87
2022/09/16 09:26:23;;;;;;;5.40;3.20;;;13.30;99.90;;;;;;5002214;28;20207;-88
2022/09/16 09:29:23;;;;;;;4.30;3.00;;;13.30;99.90;;;;;;4993911;28;20187;-87
2022/09/16 09:32:06;;;;;;;3.80;2.97;;;13.30;99.90;;;;;;4990667;28;20214;-87
2022/09/16 09:34:55;;;;;;;5.33;3.07;;;13.30;99.90;;;;;;4987266;28;20222;-87
2022/09/16 09:37:29;;;;;;;6.67;3.57;;;13.30;99.90;;;;;;5028092;28;20197;-88
2022/09/16 09:40:06;;;;;;;3.87;3.23;;;13.40;99.90;;;;;;4985919;28;20175;-87
2022/09/16 09:43:06;;;;;;;3.37;3.07;;;13.40;99.90;;;;;;4999168;28;20187;-87
2022/09/16 09:45:36;;;;;;;5.30;3.37;;;13.40;99.90;;;;;;4969704;28;20245;-87
2022/09/16 09:48:15;;;;;;;5.23;3.33;;;13.30;99.90;;;;;;4995440;28;20191;-87
2022/09/16 09:50:44;;;;;;;3.77;3.23;;;13.20;99.90;;;;;;5013018;28;20443;-87
2022/09/16 09:53:10;;;;;;;6.13;3.63;;;13.20;99.90;;;;;;4989303;28;20178;-87
2022/09/16 09:55:41;;;;;;;4.40;3.40;;;13.30;99.90;;;;;;4995928;28;20222;-87
2022/09/16 09:58:43;;;;;;;6.67;4.27;;;13.30;99.90;;;;;;4996815;28;20182;-87
2022/09/16 10:01:10;;;;;;;3.67;3.23;;;13.30;99.90;;;;;;4976284;28;20320;-88
2022/09/16 10:03:37;;;;;;;5.57;3.70;;;13.40;99.90;;;;;;5012929;28;20183;-88
2022/09/16 10:06:04;;;;;;;4.80;4.20;;;13.50;99.90;;;;;;4993792;28;20213;-87
2022/09/16 10:08:42;;;;;;;8.33;4.30;;;13.60;99.90;;;;;;5011087;28;20174;-88
2022/09/16 10:11:22;;;;;;;5.57;4.37;;;13.70;99.90;;;;;;5008552;28;20214;-88
2022/09/16 10:13:54;;;;;;;4.97;4.57;;;13.80;99.90;;;;;;4979754;28;20183;-87
2022/09/16 10:16:38;;;;;;;4.00;3.63;;;13.80;99.90;;;;;;4997113;28;20183;-88
2022/09/16 10:19:15;;;;;;;4.73;4.00;;;13.90;99.90;;;;;;5005778;28;20183;-88
2022/09/16 10:21:48;;;;;;;6.70;4.13;;;14.00;99.90;;;;;;4993241;28;20656;-87
2022/09/16 10:24:38;;;;;;;5.77;3.93;;;14.00;99.90;;;;;;4992780;28;20211;-87
2022/09/16 10:27:20;;;;;;;5.33;4.13;;;14.10;99.90;;;;;;5011982;28;20187;-87
2022/09/16 10:29:46;;;;;;;6.87;3.97;;;14.00;99.90;;;;;;4992788;28;20198;-87
2022/09/16 10:32:18;;;;;;;3.60;3.03;;;13.90;99.90;;;;;;4991156;28;20186;-87
2022/09/16 10:34:46;;;;;;;3.50;3.10;;;13.80;99.90;;;;;;4991874;28;20199;-87
2022/09/16 10:37:12;;;;;;;3.80;3.40;;;13.80;99.90;;;;;;5001791;28;20202;-87
2022/09/16 10:39:41;;;;;;;4.53;3.60;;;13.80;99.90;;;;;;4995049;28;20259;-87
2022/09/16 10:42:22;;;;;;;4.17;3.60;;;13.80;99.90;;;;;;5003821;28;20259;-87
2022/09/16 10:44:50;;;;;;;5.67;3.73;;;13.80;99.90;;;;;;4989885;28;20301;-87
2022/09/16 10:47:30;;;;;;;3.40;3.10;;;13.80;99.90;;;;;;4994854;28;20240;-87
2022/09/16 10:50:00;;;;;;;5.47;4.00;;;13.70;99.90;;;;;;4993088;28;20183;-87
2022/09/16 10:52:39;;;;;;;4.37;3.27;;;13.80;99.90;;;;;;4995327;28;20174;-87
2022/09/16 10:55:36;;;;;;;5.13;3.60;;;13.80;99.90;;;;;;4992662;28;20219;-87
2022/09/16 10:58:29;;;;;;;4.00;3.60;;;13.80;99.90;;;;;;4989708;28;20186;-87
2022/09/16 11:01:07;;;;;;;3.23;2.97;;;13.80;99.90;;;;;;5001223;28;20306;-88
2022/09/16 11:03:41;;;;;;;3.73;3.00;;;13.80;99.90;;;;;;4993123;28;20273;-87
2022/09/16 11:06:31;;;;;;;4.80;3.73;;;13.90;99.90;;;;;;5012685;28;20260;-87
2022/09/16 11:09:23;;;;;;;4.23;3.77;;;13.90;99.90;;;;;;4993543;28;20270;-87
2022/09/16 11:12:38;;;;;;;5.53;4.10;;;13.90;99.90;;;;;;4965378;28;20218;-88
2022/09/16 11:15:34;;;;;;;7.67;4.03;;;13.80;99.90;;;;;;4937874;28;20215;-88
2022/09/16 11:18:19;;;;;;;7.00;4.23;;;13.90;99.90;;;;;;5002198;28;20187;-87
2022/09/16 11:21:19;;;;;;;5.30;3.93;;;13.90;99.90;;;;;;4989924;28;20364;-87
2022/09/16 11:24:15;;;;;;;5.37;4.87;;;14.00;99.90;;;;;;5010847;28;20191;-88
2022/09/16 11:27:08;;;;;;;7.83;4.67;;;14.10;99.90;;;;;;4995749;28;20179;-88
2022/09/16 11:30:13;;;;;;;6.37;4.77;;;14.20;99.90;;;;;;5013212;28;20175;-87
2022/09/16 11:32:51;;;;;;;5.17;4.27;;;14.40;99.90;;;;;;4920692;29;20186;-87
2022/09/16 11:35:40;;;;;;;5.30;4.77;;;14.40;99.90;;;;;;4970799;28;20193;-86
2022/09/16 11:38:37;;;;;;;4.90;3.97;;;14.60;99.90;;;;;;4967709;28;20203;-87
2022/09/16 11:41:39;;;;;;;5.43;4.93;;;14.60;99.90;;;;;;4995934;28;20171;-87
2022/09/16 11:44:05;;;;;;;4.60;4.10;;;14.60;99.90;;;;;;4979290;28;20270;-87
2022/09/16 11:46:46;;;;;;;4.40;4.00;;;14.60;99.90;;;;;;4979895;28;20279;-87
2022/09/16 11:49:24;;;;;;;4.70;4.17;;;14.60;99.90;;;;;;4998882;28;20163;-87
2022/09/16 11:52:17;;;;;;;5.33;4.07;;;14.70;99.90;;;;;;4982405;28;20210;-86
2022/09/16 11:54:57;;;;;;;4.57;4.17;;;14.80;99.90;;;;;;4998460;28;20226;-87
2022/09/16 11:57:47;;;;;;;4.70;3.70;;;14.80;99.90;;;;;;4982368;28;20183;-87
2022/09/16 12:00:17;;;;;;;4.87;4.13;;;14.90;99.90;;;;;;4981969;28;20219;-87
2022/09/16 12:03:25;;;;;;;4.93;3.77;;;15.00;99.90;;;;;;5002733;28;20194;-87
2022/09/16 12:06:03;;;;;;;3.70;3.40;;;15.00;99.90;;;;;;4982729;28;20210;-87
2022/09/16 12:08:42;;;;;;;4.40;4.00;;;15.20;99.90;;;;;;5010219;28;20190;-87
2022/09/16 12:11:32;;;;;;;4.27;3.87;;;15.40;99.90;;;;;;5003023;28;20230;-87
2022/09/16 12:14:23;;;;;;;2.50;2.30;;;15.50;99.90;;;;;;4997162;28;20182;-87
2022/09/16 12:16:59;;;;;;;2.93;2.20;;;15.80;99.90;;;;;;5013271;28;20171;-87
2022/09/16 12:19:36;;;;;;;3.97;2.00;;;15.90;99.90;;;;;;5016157;28;20171;-86
2022/09/16 12:22:04;;;;;;;2.70;1.87;;;16.00;99.90;;;;;;5014270;28;20191;-87
2022/09/16 12:24:35;;;;;;;2.27;1.53;;;16.10;99.90;;;;;;5004146;28;20289;-87
2022/09/16 12:27:26;;;;;;;3.60;1.57;;;16.20;99.90;;;;;;5012568;28;20230;-87
2022/09/16 12:29:59;;;;;;;4.30;1.90;;;16.20;99.90;;;;;;4987156;28;20186;-87
2022/09/16 12:32:45;;;;;;;2.97;1.47;;;16.20;99.90;;;;;;5009855;28;20972;-87
2022/09/16 12:35:19;;;;;;;3.40;1.90;;;16.20;99.90;;;;;;4947812;28;20199;-87
2022/09/16 12:37:48;;;;;;;3.17;1.87;;;16.10;99.90;;;;;;5014120;28;20636;-87
2022/09/16 12:40:30;;;;;;;3.43;1.90;;;16.00;99.90;;;;;;5013474;28;20179;-87
2022/09/16 12:43:22;;;;;;;2.97;1.70;;;16.00;99.90;;;;;;5010604;28;20202;-87
2022/09/16 12:46:33;;;;;;;2.73;1.80;;;15.80;99.90;;;;;;4984813;28;20257;-87
2022/09/16 12:49:05;;;;;;;3.13;1.67;;;15.80;99.90;;;;;;4935602;29;20210;-87
2022/09/16 12:51:49;;;;;;;4.20;1.53;;;15.70;99.90;;;;;;4988565;28;20229;-87
2022/09/16 12:54:34;;;;;;;2.03;1.63;;;15.60;99.90;;;;;;5010604;28;20277;-87
2022/09/16 12:57:22;;;;;;;3.83;2.03;;;15.50;99.90;;;;;;4987832;28;20202;-87
2022/09/16 13:00:10;;;;;;;2.37;1.60;;;15.50;99.90;;;;;;4999718;28;20298;-87
2022/09/16 13:02:41;;;;;;;4.30;1.70;;;15.50;99.90;;;;;;4998156;28;20236;-87
2022/09/16 13:05:32;;;;;;;2.17;1.47;;;15.50;99.90;;;;;;5024978;28;20198;-87
2022/09/16 13:08:07;;;;;;;5.00;2.00;;;15.50;99.90;;;;;;5001134;28;20270;-87
2022/09/16 13:10:39;;;;;;;3.33;1.87;;;15.60;99.90;;;;;;4997816;28;20210;-87
2022/09/16 13:13:18;;;;;;;3.90;1.60;;;15.70;99.90;;;;;;5010145;28;20188;-87
2022/09/16 13:15:58;;;;;;;3.17;1.87;;;15.70;99.90;;;;;;4997046;28;20221;-87
2022/09/16 13:18:36;;;;;;;3.10;1.63;;;15.90;99.90;;;;;;5012342;28;20186;-87
2022/09/16 13:21:19;;;;;;;6.33;2.07;;;16.00;99.90;;;;;;4988827;28;20179;-87
2022/09/16 13:23:50;;;;;;;2.20;1.48;;;16.30;99.90;;;;;;5012409;28;20175;-87